Danali, Honduras
Current Conditions -  °F | °C
As of 9:00 AM on Friday 24 Oct 2014 (Local Time) from MHTG Reporting Station
Broken Clouds Broken Clouds  
Wind Chill: 24°   Ceiling: 1800
Heat Index: 24°   Visibility: 6mi
Dew Point: 20°   Wind: 5mph
Humidity: 78%   Direction: 200°SSW
Pressure: 30.09"   Gusts: NA
Location:  14.02°N, 86.3°W
Report Text: MHTG 241500Z 20004KT 9999 FEW007 BKN018 24/20 Q1019 A3009NOSIG
Loading
Personal Weather Stations






























Interactive Weather Map
Tropical Storm Tracking
New forecast layout! Learn more

10-Day Weather Forecast

Advertisements
Track Severe Weather on mobile